リヨン の空港の天気 - METARとTAF

サン=テグジュペリ国際空港(リヨン) ( LFLL / LYS ) - フランス リヨン
飛行場実況気象(Metar)
観測時間07/18 14:30 CEST (07/18 12:30 UTC)
風向・風速北 3m/s
視程10km以上
天気現象
なし
気温29℃
湿度31%
気圧1014hPa
METARLFLL 181230Z 35006KT 280V040 CAVOK 29/10 Q1014 NOSIG
過去の天気等 Google飛行場航空写真 Wunderground天気予報

過去48時間のMETAR

飛行場予報(TAF)
発表時間: 7/18 13:00 CEST (7/18 11:00 UTC)
予報対象時間: 18日14時 CEST ~ 19日20時 CEST
風向・風速北 4m/s
視程10km以上
なし
18日22時 CEST ~ 18日24時 CEST に徐々に
風向・風速不定 1m/s
19日9時 CEST ~ 19日11時 CEST に徐々に
風向・風速北 3m/s
TAF LFLL 181100Z 1812/1918 35008KT CAVOK
BECMG 1820/1822 VRB02KT
BECMG 1907/1909 36005KT